Terminal Aerodrome Forecast
Issued by NWS Grand Forks, ND

Home | Current Version | Previous Version | Graphics & Text | Print | Product List | Glossary On
Versions: 1 2 3 4 5 6 7 8 9 10 11 12 13 14
051
FTUS43 KFGF 292321
TAFFAR
TAF
KFAR 292321Z 3000/3024 33013KT P6SM OVC008
      TEMPO 3000/3003 -RA OVC012
     FM300700 34012KT 3SM BR OVC006
     FM301800 34012KT P6SM -DZ OVC006=

USA.gov is the U.S. government's official web portal to all federal, state and local government web resources and services.